Time;durP1;ratioP1;P1;durP2;ratioP2;P2;SDS_P1;SDS_P2;PMS_P1;PMS_P2;Temp;Humidity;BMP_temperature;BMP_pressure;BME280_temperature;BME280_humidity;BME280_pressure;Samples;Min_cycle;Max_cycle;Signal;HPM_P1;HPM_P2
2022/07/15 00:00:13;;;;;;;9.20;3.00;;;13.00;99.90;;;;;;4950148;28;20043;-90
2022/07/15 00:02:39;;;;;;;10.95;3.38;;;13.00;99.90;;;;;;4949555;28;20126;-90
2022/07/15 00:05:06;;;;;;;8.32;3.10;;;13.00;99.90;;;;;;4969229;28;20178;-90
2022/07/15 00:07:32;;;;;;;8.88;3.00;;;13.00;99.90;;;;;;4933635;29;20129;-91
2022/07/15 00:12:46;;;;;;;9.20;3.03;;;12.90;99.90;;;;;;4949080;29;20433;-91
2022/07/15 00:15:13;;;;;;;8.00;3.15;;;12.90;99.90;;;;;;4947858;29;20114;-90
2022/07/15 00:17:39;;;;;;;9.30;3.15;;;12.90;99.90;;;;;;4949365;29;20064;-91
2022/07/15 00:20:05;;;;;;;7.05;3.00;;;12.90;99.90;;;;;;4947370;29;20412;-91
2022/07/15 00:22:31;;;;;;;7.28;2.85;;;12.90;99.90;;;;;;4953327;28;20051;-91
2022/07/15 00:24:57;;;;;;;8.65;3.28;;;13.00;99.90;;;;;;4933761;28;20043;-90
2022/07/15 00:27:23;;;;;;;8.98;2.90;;;13.00;99.90;;;;;;4953302;28;20049;-90
2022/07/15 00:29:50;;;;;;;9.02;3.25;;;13.00;99.90;;;;;;4952977;28;20058;-91
2022/07/15 00:32:16;;;;;;;7.60;3.25;;;13.00;99.90;;;;;;4954003;28;20448;-90
2022/07/15 00:34:42;;;;;;;8.85;3.20;;;13.00;99.90;;;;;;4952984;28;20048;-90
2022/07/15 00:37:08;;;;;;;8.75;3.40;;;13.00;99.90;;;;;;4953139;29;20396;-90
2022/07/15 00:39:33;;;;;;;9.50;3.70;;;12.90;99.90;;;;;;4937134;29;20425;-91
2022/07/15 00:41:59;;;;;;;11.10;3.60;;;12.90;99.90;;;;;;4951189;28;20201;-91
2022/07/15 00:44:25;;;;;;;10.70;3.55;;;12.90;99.90;;;;;;4953204;28;20043;-91
2022/07/15 00:46:52;;;;;;;8.07;3.10;;;13.00;99.90;;;;;;4936075;29;20098;-90
2022/07/15 00:49:18;;;;;;;8.07;3.53;;;12.80;99.90;;;;;;4951139;28;20448;-91
2022/07/15 00:51:47;;;;;;;10.85;3.80;;;12.90;99.90;;;;;;4953992;28;20134;-91
2022/07/15 00:54:14;;;;;;;10.82;3.40;;;12.90;99.90;;;;;;4953603;29;20075;-89
2022/07/15 00:56:54;;;;;;;10.18;3.38;;;13.00;99.90;;;;;;4936350;28;20159;-90
2022/07/15 00:59:23;;;;;;;11.95;3.60;;;12.90;99.90;;;;;;4937929;29;20039;-89
2022/07/15 01:01:51;;;;;;;10.07;3.08;;;13.00;99.90;;;;;;4953213;29;20047;-92
2022/07/15 01:04:17;;;;;;;9.77;3.05;;;13.00;99.90;;;;;;4963787;28;20039;-96
2022/07/15 01:06:43;;;;;;;9.43;3.00;;;13.00;99.90;;;;;;4968066;29;20074;-95
2022/07/15 01:09:09;;;;;;;10.68;3.58;;;13.00;99.90;;;;;;4963672;28;20544;-94
2022/07/15 01:11:35;;;;;;;11.25;3.70;;;13.10;99.90;;;;;;4955752;29;20043;-95
2022/07/15 01:14:02;;;;;;;9.57;3.30;;;13.10;99.90;;;;;;4947234;29;20035;-95
2022/07/15 01:16:28;;;;;;;10.88;3.10;;;13.10;99.90;;;;;;4964254;29;20054;-95
2022/07/15 01:18:54;;;;;;;9.13;3.15;;;13.10;99.90;;;;;;4964178;28;20118;-95
2022/07/15 01:21:20;;;;;;;13.05;3.55;;;13.10;99.90;;;;;;4952258;29;20560;-94
2022/07/15 01:23:45;;;;;;;11.50;3.35;;;13.20;99.90;;;;;;4962640;29;20047;-95
2022/07/15 01:26:12;;;;;;;9.25;3.17;;;13.20;99.90;;;;;;4963999;29;20043;-94
2022/07/15 01:28:39;;;;;;;9.77;2.90;;;13.20;99.90;;;;;;4963287;28;20043;-95
2022/07/15 01:31:05;;;;;;;10.68;2.78;;;13.20;99.90;;;;;;4957052;28;20039;-95
2022/07/15 01:33:32;;;;;;;11.45;2.97;;;13.20;99.90;;;;;;4958177;28;20492;-93
2022/07/15 01:35:59;;;;;;;9.43;2.72;;;13.30;99.90;;;;;;4941644;29;20114;-95
2022/07/15 01:38:26;;;;;;;7.63;2.70;;;13.20;99.90;;;;;;4956506;28;20393;-96
2022/07/15 01:40:52;;;;;;;9.18;2.65;;;13.30;99.90;;;;;;4960272;29;20106;-95
2022/07/15 01:43:17;;;;;;;8.82;2.58;;;13.40;99.90;;;;;;4946722;29;20196;-95
2022/07/15 01:45:45;;;;;;;10.25;3.03;;;13.40;99.90;;;;;;4960556;29;20047;-95
2022/07/15 01:49:21;;;;;;;8.32;2.63;;;13.40;99.90;;;;;;4958929;29;20047;-95
2022/07/15 01:50:58;;;;;;;8.73;2.95;;;13.40;99.90;;;;;;4944322;29;20051;-95
2022/07/15 01:53:25;;;;;;;10.30;3.00;;;13.40;99.90;;;;;;4941231;29;20051;-96
2022/07/15 01:55:50;;;;;;;10.50;3.00;;;13.50;99.90;;;;;;4944289;29;20035;-95
2022/07/15 01:58:16;;;;;;;7.85;2.75;;;13.50;99.90;;;;;;4962455;28;20039;-95
2022/07/15 02:00:42;;;;;;;12.45;2.60;;;13.50;99.90;;;;;;4992281;28;20071;-95
2022/07/15 02:03:08;;;;;;;11.15;2.95;;;13.50;99.90;;;;;;4960052;29;20043;-95
2022/07/15 02:05:34;;;;;;;8.27;2.80;;;13.50;99.90;;;;;;4959381;28;20039;-95
2022/07/15 02:08:01;;;;;;;9.25;2.80;;;13.40;99.90;;;;;;4960563;29;20435;-95
2022/07/15 02:10:39;;;;;;;9.43;3.10;;;13.50;99.90;;;;;;4964114;28;20035;-95
2022/07/15 02:13:09;;;;;;;8.55;2.65;;;13.50;99.90;;;;;;4933153;29;20150;-95
2022/07/15 02:15:34;;;;;;;9.35;2.50;;;13.40;99.90;;;;;;4942090;29;20453;-95
2022/07/15 02:18:01;;;;;;;8.70;2.55;;;13.50;99.90;;;;;;4944800;28;20055;-95
2022/07/15 02:20:27;;;;;;;9.63;2.65;;;13.50;99.90;;;;;;4960780;28;20063;-95
2022/07/15 02:22:53;;;;;;;8.93;2.97;;;13.50;99.90;;;;;;4962934;29;20035;-95
2022/07/15 02:25:19;;;;;;;9.07;2.80;;;13.50;99.90;;;;;;4963725;28;20129;-94
2022/07/15 02:27:44;;;;;;;11.07;3.40;;;13.50;99.90;;;;;;4960886;29;20046;-94
2022/07/15 02:30:11;;;;;;;11.90;3.05;;;13.40;99.90;;;;;;4962324;28;20039;-94
2022/07/15 02:32:37;;;;;;;9.85;2.95;;;13.40;99.90;;;;;;4967625;28;20040;-95
2022/07/15 02:35:03;;;;;;;11.13;2.85;;;13.40;99.90;;;;;;4962705;28;20051;-95
2022/07/15 02:37:28;;;;;;;9.70;3.05;;;13.40;99.90;;;;;;4969557;29;20082;-94
2022/07/15 02:39:54;;;;;;;9.77;2.80;;;13.40;99.90;;;;;;4971667;29;20070;-94
2022/07/15 02:42:19;;;;;;;10.27;3.03;;;13.40;99.90;;;;;;4969875;28;20065;-95
2022/07/15 02:44:45;;;;;;;9.93;2.78;;;13.40;99.90;;;;;;4963455;28;20044;-94
2022/07/15 02:47:11;;;;;;;7.88;2.95;;;13.30;99.90;;;;;;4963853;29;20047;-95
2022/07/15 02:49:36;;;;;;;9.68;2.92;;;13.30;99.90;;;;;;4963268;28;20058;-95
2022/07/15 02:52:02;;;;;;;11.75;2.90;;;13.20;99.90;;;;;;4963574;28;20125;-96
2022/07/15 02:54:28;;;;;;;10.25;2.90;;;13.20;99.90;;;;;;4956174;28;20106;-95
2022/07/15 02:56:53;;;;;;;10.20;3.00;;;13.20;99.90;;;;;;4953723;29;20185;-96
2022/07/15 02:59:19;;;;;;;10.82;2.88;;;13.10;99.90;;;;;;4957033;28;20035;-96
2022/07/15 03:01:44;;;;;;;9.48;2.63;;;13.10;99.90;;;;;;4938354;29;20098;-96
2022/07/15 03:04:10;;;;;;;9.20;3.03;;;13.10;99.90;;;;;;4955272;29;20048;-96
2022/07/15 03:06:36;;;;;;;8.13;2.70;;;13.00;99.90;;;;;;4955775;29;20082;-95
2022/07/15 03:09:01;;;;;;;10.73;3.10;;;13.00;99.90;;;;;;4955359;29;20114;-95
2022/07/15 03:11:27;;;;;;;11.73;3.08;;;13.00;99.90;;;;;;4956963;28;20050;-94
2022/07/15 03:13:52;;;;;;;8.82;2.92;;;12.90;99.90;;;;;;4955516;29;20053;-94
2022/07/15 03:16:18;;;;;;;9.90;3.17;;;12.90;99.90;;;;;;4940232;29;20098;-95
2022/07/15 03:18:43;;;;;;;9.77;3.10;;;12.80;99.90;;;;;;4939755;29;20039;-95
2022/07/15 03:21:09;;;;;;;9.00;2.90;;;12.80;99.90;;;;;;4955506;28;20587;-94
2022/07/15 03:23:35;;;;;;;9.90;2.83;;;12.70;99.90;;;;;;4957111;29;20043;-95
2022/07/15 03:26:01;;;;;;;9.00;3.30;;;12.70;99.90;;;;;;4953114;28;20142;-95
2022/07/15 03:28:26;;;;;;;11.05;2.95;;;12.70;99.90;;;;;;4939659;29;20051;-95
2022/07/15 03:30:52;;;;;;;11.25;3.65;;;12.70;99.90;;;;;;4958025;29;20083;-95
2022/07/15 03:33:17;;;;;;;9.20;3.10;;;12.70;99.90;;;;;;4954882;29;20035;-95
2022/07/15 03:35:43;;;;;;;9.10;2.75;;;12.60;99.90;;;;;;4954136;28;20035;-95
2022/07/15 03:38:09;;;;;;;8.57;2.80;;;12.60;99.90;;;;;;4953371;29;20393;-95
2022/07/15 03:40:35;;;;;;;9.23;3.15;;;12.60;99.90;;;;;;4955584;28;20122;-94
2022/07/15 03:43:00;;;;;;;11.15;3.40;;;12.50;99.90;;;;;;4954692;29;20085;-95
2022/07/15 03:45:26;;;;;;;9.57;2.97;;;12.50;99.90;;;;;;4951416;29;20043;-96
2022/07/15 03:47:51;;;;;;;10.45;3.45;;;12.50;99.90;;;;;;4937436;29;20051;-95
2022/07/15 03:50:17;;;;;;;9.73;3.05;;;12.40;99.90;;;;;;4934618;29;20082;-95
2022/07/15 03:52:43;;;;;;;9.25;3.45;;;12.50;99.90;;;;;;4950486;29;20047;-95
2022/07/15 03:55:10;;;;;;;8.57;3.47;;;12.40;99.90;;;;;;4958046;29;20493;-94
2022/07/15 03:57:36;;;;;;;11.35;3.50;;;12.40;99.90;;;;;;4958679;29;20047;-95
2022/07/15 04:00:02;;;;;;;10.13;3.45;;;12.40;99.90;;;;;;4957082;28;20051;-94
2022/07/15 04:02:27;;;;;;;10.80;3.58;;;12.40;99.90;;;;;;4987861;28;20047;-95
2022/07/15 04:04:54;;;;;;;10.23;3.53;;;12.40;99.90;;;;;;4955703;28;20043;-95
2022/07/15 04:07:19;;;;;;;11.55;3.50;;;12.40;99.90;;;;;;4961051;28;20492;-95
2022/07/15 04:09:45;;;;;;;19.10;5.70;;;12.40;99.90;;;;;;4956649;29;20067;-95
2022/07/15 04:12:10;;;;;;;10.05;3.45;;;12.40;99.90;;;;;;4956606;29;20051;-96
2022/07/15 04:14:36;;;;;;;8.93;3.33;;;12.40;99.90;;;;;;4953977;28;20047;-96
2022/07/15 04:17:02;;;;;;;9.73;3.20;;;12.40;99.90;;;;;;4953684;29;20061;-95
2022/07/15 04:19:29;;;;;;;10.02;3.50;;;12.40;99.90;;;;;;4953376;28;20162;-94
2022/07/15 04:21:54;;;;;;;11.68;3.53;;;12.40;99.90;;;;;;4954817;29;20120;-94
2022/07/15 04:24:20;;;;;;;9.73;3.28;;;12.40;99.90;;;;;;4939172;29;20107;-95
2022/07/15 04:26:45;;;;;;;9.02;3.30;;;12.40;99.90;;;;;;4937679;29;20040;-95
2022/07/15 04:29:11;;;;;;;11.40;3.80;;;12.40;99.90;;;;;;4936067;29;20516;-95
2022/07/15 04:31:37;;;;;;;8.80;3.13;;;12.40;99.90;;;;;;4940571;28;20522;-95
2022/07/15 04:34:02;;;;;;;10.55;3.58;;;12.40;99.90;;;;;;4953055;28;20097;-95
2022/07/15 04:36:28;;;;;;;9.25;4.03;;;12.40;99.90;;;;;;4943483;29;20188;-95
2022/07/15 04:38:53;;;;;;;10.57;3.55;;;12.40;99.90;;;;;;4953499;29;20036;-94
2022/07/15 04:41:19;;;;;;;12.20;4.05;;;12.40;99.90;;;;;;4936874;29;20047;-94
2022/07/15 04:43:45;;;;;;;9.30;3.30;;;12.50;99.90;;;;;;4953123;29;20058;-94
2022/07/15 04:46:11;;;;;;;9.00;3.55;;;12.50;99.90;;;;;;4951829;28;20046;-95
2022/07/15 04:51:20;;;;;;;10.07;3.40;;;12.40;99.90;;;;;;4950743;29;20416;-95
2022/07/15 04:53:46;;;;;;;10.57;3.58;;;12.40;99.90;;;;;;4952023;29;20043;-95
2022/07/15 04:56:12;;;;;;;10.93;3.78;;;12.50;99.90;;;;;;4951591;29;20098;-95
2022/07/15 04:58:38;;;;;;;9.80;3.25;;;12.50;99.90;;;;;;4954189;28;20286;-95
2022/07/15 05:01:03;;;;;;;9.82;3.53;;;12.50;99.90;;;;;;4952207;29;20062;-95
2022/07/15 05:03:29;;;;;;;9.75;3.38;;;12.60;99.90;;;;;;4952804;28;20047;-95
2022/07/15 05:05:55;;;;;;;11.68;3.80;;;12.70;99.90;;;;;;4951192;28;20046;-95
2022/07/15 05:08:21;;;;;;;8.85;3.22;;;12.80;99.90;;;;;;4936989;29;20047;-95
2022/07/15 05:10:46;;;;;;;9.23;3.13;;;12.90;99.90;;;;;;4942494;28;20051;-95
2022/07/15 05:13:12;;;;;;;9.55;2.75;;;13.10;99.90;;;;;;4930628;29;20054;-95
2022/07/15 05:15:38;;;;;;;9.85;3.40;;;13.10;99.90;;;;;;4941724;29;20122;-94
2022/07/15 05:18:04;;;;;;;10.98;3.17;;;13.20;99.90;;;;;;4952023;28;20126;-94
2022/07/15 05:20:29;;;;;;;8.50;2.75;;;13.30;99.90;;;;;;4952164;28;20078;-96
2022/07/15 05:22:55;;;;;;;11.07;3.03;;;13.40;99.90;;;;;;4968050;28;20055;-95
2022/07/15 05:25:20;;;;;;;10.10;2.80;;;13.40;99.90;;;;;;4961166;28;20126;-95
2022/07/15 05:27:47;;;;;;;10.88;3.00;;;13.40;99.90;;;;;;4958704;29;20055;-94
2022/07/15 05:30:12;;;;;;;8.75;2.70;;;13.50;99.90;;;;;;4965827;29;20034;-95
2022/07/15 05:32:39;;;;;;;9.77;2.65;;;13.50;99.90;;;;;;4957986;29;20481;-95
2022/07/15 05:35:04;;;;;;;7.97;2.10;;;13.50;99.90;;;;;;4949704;29;20139;-96
2022/07/15 05:37:30;;;;;;;7.97;2.17;;;13.60;99.90;;;;;;4966586;28;20083;-96
2022/07/15 05:42:38;;;;;;;9.50;2.40;;;13.60;99.90;;;;;;4982821;28;20443;-96
2022/07/15 05:45:07;;;;;;;7.00;2.30;;;13.70;99.90;;;;;;5211335;23;20017;-93
2022/07/15 05:47:32;;;;;;;8.43;1.92;;;13.70;99.90;;;;;;4994254;28;20096;-92
2022/07/15 05:50:04;;;;;;;8.57;2.20;;;13.70;99.90;;;;;;4978678;28;20070;-95
2022/07/15 05:52:30;;;;;;;7.20;1.90;;;13.80;99.90;;;;;;4997608;28;20053;-95
2022/07/15 05:54:55;;;;;;;7.90;1.90;;;13.80;99.90;;;;;;5137448;23;20046;-95
2022/07/15 05:57:21;;;;;;;6.82;1.70;;;13.80;99.90;;;;;;5000561;28;20038;-95
2022/07/15 05:59:47;;;;;;;5.40;1.70;;;13.90;99.90;;;;;;5003046;28;20046;-94
2022/07/15 06:02:13;;;;;;;6.72;2.00;;;13.90;99.90;;;;;;5008283;28;20034;-96
2022/07/15 06:04:39;;;;;;;8.75;1.70;;;13.90;99.90;;;;;;4992994;28;20399;-96
2022/07/15 06:07:05;;;;;;;5.93;1.67;;;13.90;99.90;;;;;;5010359;28;20062;-96
2022/07/15 06:09:31;;;;;;;5.13;1.30;;;14.00;99.90;;;;;;5013270;28;20051;-95
2022/07/15 06:11:58;;;;;;;8.32;1.75;;;14.10;99.90;;;;;;5009346;28;20042;-95
2022/07/15 06:14:24;;;;;;;7.20;1.88;;;14.20;99.90;;;;;;5249405;23;20081;-95
2022/07/15 06:16:49;;;;;;;5.80;1.40;;;14.30;99.90;;;;;;4997540;28;20085;-95
2022/07/15 06:22:06;;;;;;;5.28;1.50;;;14.60;99.90;;;;;;4950640;28;20106;-92
2022/07/15 06:24:32;;;;;;;4.20;1.30;;;14.80;99.90;;;;;;4945908;28;20043;-96
2022/07/15 06:26:58;;;;;;;5.03;1.40;;;14.90;99.90;;;;;;4953461;28;20134;-93
2022/07/15 06:29:23;;;;;;;5.75;1.48;;;14.90;99.90;;;;;;4941050;28;20081;-94
2022/07/15 06:31:49;;;;;;;6.78;1.40;;;15.00;99.90;;;;;;4947467;28;20496;-91
2022/07/15 06:34:15;;;;;;;5.07;1.40;;;15.00;99.90;;;;;;4952173;29;20042;-92
2022/07/15 06:36:41;;;;;;;6.25;1.48;;;15.10;99.90;;;;;;4947828;28;20053;-92
2022/07/15 06:39:07;;;;;;;6.20;1.58;;;15.20;99.90;;;;;;4946444;28;20047;-90
2022/07/15 06:41:33;;;;;;;7.15;1.50;;;15.40;99.90;;;;;;4941813;28;20113;-91
2022/07/15 06:43:59;;;;;;;6.22;1.55;;;15.40;99.90;;;;;;4942300;28;20070;-91
2022/07/15 06:46:25;;;;;;;6.28;1.40;;;15.50;99.90;;;;;;4958691;28;20090;-87
2022/07/15 06:48:51;;;;;;;6.10;1.30;;;15.60;99.90;;;;;;4942974;28;20278;-90
2022/07/15 06:51:16;;;;;;;9.05;1.73;;;15.70;99.90;;;;;;4947512;28;20402;-87
2022/07/15 06:53:42;;;;;;;4.47;1.60;;;15.80;99.90;;;;;;4949729;29;20043;-88
2022/07/15 06:56:08;;;;;;;6.40;1.20;;;15.80;99.90;;;;;;4930158;29;20488;-89
2022/07/15 06:58:34;;;;;;;8.07;1.30;;;15.90;99.90;;;;;;4948052;28;20043;-90
2022/07/15 07:01:00;;;;;;;4.65;1.00;;;16.00;99.90;;;;;;4954410;28;20440;-89
2022/07/15 07:03:26;;;;;;;6.05;1.30;;;16.10;99.90;;;;;;4948316;28;20126;-92
2022/07/15 07:05:51;;;;;;;5.07;1.10;;;16.20;99.90;;;;;;4924979;29;20051;-87
2022/07/15 07:08:17;;;;;;;3.65;1.23;;;16.30;99.90;;;;;;4944813;28;20047;-87
2022/07/15 07:10:43;;;;;;;5.25;0.90;;;16.40;99.90;;;;;;4947240;29;20039;-88
2022/07/15 07:13:09;;;;;;;2.78;0.70;;;16.50;99.90;;;;;;4952358;28;20562;-88
2022/07/15 07:15:35;;;;;;;5.45;0.82;;;16.60;99.90;;;;;;4966123;28;20066;-88
2022/07/15 07:18:01;;;;;;;4.47;0.80;;;16.70;99.90;;;;;;4969921;28;20420;-85
2022/07/15 07:20:27;;;;;;;5.28;0.95;;;16.80;99.90;;;;;;4949166;28;20063;-88
2022/07/15 07:22:53;;;;;;;4.72;0.90;;;17.00;99.90;;;;;;4956511;28;20053;-89
2022/07/15 07:25:18;;;;;;;2.33;0.90;;;17.00;99.90;;;;;;4942499;28;20047;-89
2022/07/15 07:27:44;;;;;;;4.75;0.90;;;17.20;99.90;;;;;;4950067;28;20082;-86
2022/07/15 07:30:10;;;;;;;3.90;0.70;;;17.20;99.90;;;;;;4950683;28;20040;-89
2022/07/15 07:32:35;;;;;;;4.13;0.90;;;17.30;99.90;;;;;;4942644;28;20050;-88
2022/07/15 07:35:01;;;;;;;4.97;0.90;;;17.30;99.90;;;;;;4949587;28;20047;-87
2022/07/15 07:37:27;;;;;;;3.08;0.68;;;17.40;99.90;;;;;;4950153;28;20094;-91
2022/07/15 07:39:53;;;;;;;3.45;0.80;;;17.40;99.90;;;;;;4946663;28;20043;-89
2022/07/15 07:42:19;;;;;;;3.72;0.73;;;17.40;99.90;;;;;;4963669;28;20131;-89
2022/07/15 07:44:46;;;;;;;3.60;0.90;;;17.50;99.90;;;;;;4948641;29;20040;-87
2022/07/15 07:47:11;;;;;;;2.90;0.85;;;17.50;99.90;;;;;;4948933;29;20420;-88
2022/07/15 07:49:37;;;;;;;5.93;0.85;;;17.50;99.90;;;;;;4947730;28;20059;-88
2022/07/15 07:52:04;;;;;;;4.63;1.00;;;17.40;99.90;;;;;;4948343;29;20050;-89
2022/07/15 07:54:30;;;;;;;2.63;0.70;;;17.40;99.90;;;;;;4951897;28;20102;-91
2022/07/15 07:56:56;;;;;;;4.03;1.00;;;17.40;99.90;;;;;;4948846;29;20047;-89
2022/07/15 07:59:21;;;;;;;3.22;0.70;;;17.30;99.90;;;;;;4966605;28;20110;-90
2022/07/15 08:01:47;;;;;;;3.47;0.70;;;17.40;99.90;;;;;;4947196;28;20046;-89
2022/07/15 08:04:14;;;;;;;2.83;0.50;;;17.50;99.90;;;;;;4948573;29;20126;-92
2022/07/15 08:06:40;;;;;;;2.83;0.70;;;17.80;99.90;;;;;;4950545;28;20051;-90
2022/07/15 08:09:06;;;;;;;3.90;0.60;;;17.80;99.90;;;;;;4948826;29;20043;-90
2022/07/15 08:11:31;;;;;;;3.22;0.80;;;17.80;99.90;;;;;;4951564;28;20047;-88
2022/07/15 08:13:57;;;;;;;2.70;0.70;;;17.90;99.90;;;;;;4948487;29;20519;-88
2022/07/15 08:16:23;;;;;;;4.97;0.75;;;18.00;99.90;;;;;;4949779;28;20103;-88
2022/07/15 08:18:49;;;;;;;2.53;0.60;;;18.10;99.90;;;;;;4949204;29;20126;-90
2022/07/15 08:21:14;;;;;;;3.58;0.60;;;18.30;99.90;;;;;;4951521;28;20052;-89
2022/07/15 08:23:40;;;;;;;3.53;0.80;;;18.50;99.90;;;;;;4950926;28;20059;-91
2022/07/15 08:26:07;;;;;;;4.45;0.70;;;18.60;99.90;;;;;;4950726;28;20389;-89
2022/07/15 08:28:33;;;;;;;3.55;0.70;;;18.70;99.90;;;;;;4949929;29;20051;-90
2022/07/15 08:30:59;;;;;;;2.38;0.60;;;18.70;99.90;;;;;;4948327;28;20039;-90
2022/07/15 08:33:25;;;;;;;3.17;0.60;;;18.60;99.90;;;;;;4950775;28;20050;-88
2022/07/15 08:35:50;;;;;;;3.47;0.63;;;18.50;99.90;;;;;;4948577;28;20474;-90
2022/07/15 08:38:16;;;;;;;1.52;0.50;;;18.40;99.90;;;;;;4948873;28;20051;-88
2022/07/15 08:40:43;;;;;;;2.08;0.60;;;18.50;99.90;;;;;;4949776;29;20032;-90
2022/07/15 08:43:10;;;;;;;4.82;0.77;;;18.50;99.90;;;;;;4947609;28;20111;-88
2022/07/15 08:45:37;;;;;;;4.20;0.57;;;18.60;99.90;;;;;;4949357;28;20047;-90
2022/07/15 08:48:05;;;;;;;2.22;0.70;;;18.70;99.90;;;;;;4950227;28;20476;-90
2022/07/15 08:50:32;;;;;;;3.35;0.60;;;18.70;99.90;;;;;;4954527;28;20040;-89
2022/07/15 08:52:57;;;;;;;1.63;0.60;;;18.70;99.90;;;;;;4952789;29;20047;-88
2022/07/15 08:55:23;;;;;;;2.55;0.68;;;18.70;99.90;;;;;;4953061;28;20050;-88
2022/07/15 08:57:52;;;;;;;1.42;0.60;;;18.70;99.90;;;;;;4952938;28;20063;-88
2022/07/15 09:00:20;;;;;;;2.60;0.95;;;18.60;99.90;;;;;;4968926;28;20059;-93
2022/07/15 09:02:46;;;;;;;2.88;0.60;;;18.50;99.90;;;;;;4969421;28;20039;-90
2022/07/15 09:05:21;;;;;;;3.35;0.95;;;18.40;99.90;;;;;;4950695;29;20559;-92
2022/07/15 09:08:02;;;;;;;3.67;0.60;;;18.50;99.90;;;;;;4951733;28;20107;-87
2022/07/15 09:10:43;;;;;;;4.63;0.73;;;18.70;99.90;;;;;;4948688;28;20047;-89
2022/07/15 09:13:10;;;;;;;1.13;0.50;;;18.70;99.90;;;;;;4950281;29;20043;-91
2022/07/15 09:15:38;;;;;;;4.38;1.13;;;18.50;99.90;;;;;;4952800;28;20078;-91
2022/07/15 09:18:15;;;;;;;2.72;0.60;;;18.50;99.90;;;;;;4952744;29;21099;-91
2022/07/15 09:20:43;;;;;;;2.42;0.60;;;18.70;99.90;;;;;;4952132;29;20063;-89
2022/07/15 09:23:11;;;;;;;2.05;0.50;;;19.00;99.90;;;;;;4954801;28;20380;-93
2022/07/15 09:25:38;;;;;;;2.45;0.63;;;19.20;99.90;;;;;;4967057;28;20499;-92
2022/07/15 09:28:06;;;;;;;1.88;0.52;;;19.40;99.90;;;;;;4952481;29;20448;-91
2022/07/15 09:33:43;;;;;;;2.70;0.50;;;19.20;99.90;;;;;;4951182;28;20048;-91
2022/07/15 09:36:14;;;;;;;2.55;0.40;;;19.00;99.90;;;;;;4949144;29;20208;-90
2022/07/15 09:38:57;;;;;;;2.40;0.55;;;19.00;99.90;;;;;;4952735;29;20054;-93
2022/07/15 09:41:36;;;;;;;3.42;0.60;;;18.80;99.90;;;;;;4946139;28;20055;-91
2022/07/15 09:44:06;;;;;;;3.60;0.45;;;18.80;99.90;;;;;;4950369;28;20393;-91
2022/07/15 09:46:51;;;;;;;0.75;0.45;;;18.80;99.90;;;;;;4950012;29;20043;-90
2022/07/15 09:49:32;;;;;;;2.03;0.73;;;18.80;99.90;;;;;;4951860;28;20035;-92
2022/07/15 09:52:03;;;;;;;1.58;0.50;;;18.90;99.90;;;;;;4948536;29;20093;-88
2022/07/15 09:54:43;;;;;;;1.08;0.40;;;19.00;99.90;;;;;;4952614;28;20046;-89
2022/07/15 09:57:14;;;;;;;1.55;0.65;;;19.00;99.90;;;;;;4944985;28;20043;-91
2022/07/15 09:59:40;;;;;;;2.17;0.60;;;19.00;99.90;;;;;;4952140;28;20043;-88
2022/07/15 10:02:05;;;;;;;1.75;0.40;;;19.10;99.90;;;;;;4952280;28;20043;-91
2022/07/15 10:04:31;;;;;;;1.75;0.40;;;19.20;99.90;;;;;;4935697;28;20055;-90
2022/07/15 10:07:02;;;;;;;1.50;0.70;;;19.40;99.90;;;;;;4951064;28;20382;-89
2022/07/15 10:09:30;;;;;;;1.10;0.60;;;19.60;99.90;;;;;;4951758;29;20047;-91
2022/07/15 10:12:13;;;;;;;3.20;0.40;;;19.70;99.90;;;;;;4949701;28;20412;-89
2022/07/15 10:15:23;;;;;;;2.50;0.60;;;19.80;99.90;;;;;;4949796;29;20042;-91
2022/07/15 10:18:04;;;;;;;3.70;0.90;;;19.80;99.90;;;;;;4947493;29;20047;-92
2022/07/15 10:20:51;;;;;;;2.05;0.68;;;19.80;99.90;;;;;;4949209;28;20515;-90
2022/07/15 10:23:34;;;;;;;2.47;0.55;;;19.90;99.90;;;;;;4948879;28;20043;-89
2022/07/15 10:26:18;;;;;;;3.08;0.80;;;19.90;99.90;;;;;;4948325;29;20505;-90
2022/07/15 10:28:53;;;;;;;4.25;0.90;;;20.00;99.90;;;;;;4946916;29;20040;-90
2022/07/15 10:31:25;;;;;;;3.28;0.70;;;20.10;99.90;;;;;;4952109;29;20051;-91
2022/07/15 10:34:16;;;;;;;2.92;0.60;;;20.10;99.90;;;;;;4950743;29;20501;-89
2022/07/15 10:36:47;;;;;;;2.88;0.70;;;20.10;99.90;;;;;;4935112;29;20471;-89
2022/07/15 10:39:18;;;;;;;3.90;0.70;;;20.10;99.90;;;;;;4948031;28;20055;-90
2022/07/15 10:41:46;;;;;;;2.50;0.70;;;19.90;99.90;;;;;;4949412;28;20082;-89
2022/07/15 10:44:12;;;;;;;3.60;0.70;;;19.70;99.90;;;;;;4967410;28;20066;-89
2022/07/15 10:46:37;;;;;;;2.75;0.50;;;19.50;99.90;;;;;;4953095;28;20043;-87
2022/07/15 10:49:03;;;;;;;1.95;0.60;;;19.30;99.90;;;;;;4949915;29;20568;-89
2022/07/15 10:51:35;;;;;;;3.15;0.60;;;19.30;99.90;;;;;;4951751;29;20047;-90
2022/07/15 10:54:10;;;;;;;1.83;0.57;;;19.20;99.90;;;;;;4967281;28;20393;-90
2022/07/15 10:56:41;;;;;;;3.47;0.73;;;19.20;99.90;;;;;;4931332;29;20504;-94
2022/07/15 10:59:15;;;;;;;1.50;0.70;;;19.20;99.90;;;;;;4949417;29;20400;-89
2022/07/15 11:01:46;;;;;;;2.58;0.57;;;19.30;99.90;;;;;;4952862;28;20287;-92
2022/07/15 11:04:18;;;;;;;2.72;0.70;;;19.50;99.90;;;;;;4952592;28;20039;-90
2022/07/15 11:07:06;;;;;;;2.78;0.63;;;19.60;99.90;;;;;;4951199;29;20079;-91
2022/07/15 11:09:43;;;;;;;2.72;0.52;;;19.90;99.90;;;;;;4946366;28;20106;-93
2022/07/15 11:12:09;;;;;;;2.90;0.60;;;20.00;99.90;;;;;;4950511;28;20897;-89
2022/07/15 11:14:54;;;;;;;2.92;0.70;;;20.10;99.90;;;;;;4949609;28;20122;-86
2022/07/15 11:17:40;;;;;;;3.00;0.50;;;20.10;99.90;;;;;;4949702;28;20053;-92
2022/07/15 11:20:11;;;;;;;1.92;0.90;;;20.00;99.90;;;;;;4949884;28;20059;-91
2022/07/15 11:22:39;;;;;;;2.80;0.50;;;20.00;99.90;;;;;;4950215;28;20102;-89
2022/07/15 11:25:06;;;;;;;3.20;0.80;;;20.00;99.90;;;;;;4947084;28;20106;-90
2022/07/15 11:27:32;;;;;;;3.10;0.60;;;20.00;99.90;;;;;;4933370;29;20075;-87
2022/07/15 11:30:02;;;;;;;2.80;0.77;;;20.00;99.90;;;;;;4949834;28;20039;-91
2022/07/15 11:32:30;;;;;;;1.85;0.65;;;19.90;99.90;;;;;;4950202;28;20043;-92
2022/07/15 11:34:58;;;;;;;3.58;0.65;;;19.90;99.90;;;;;;4947854;28;20043;-91
2022/07/15 11:37:31;;;;;;;1.83;0.80;;;19.90;99.90;;;;;;4947702;28;20145;-92
2022/07/15 11:45:46;;;;;;;3.97;0.88;;;20.10;99.90;;;;;;4948342;28;20511;-91
2022/07/15 11:48:12;;;;;;;3.08;0.60;;;20.40;99.90;;;;;;4949058;28;20374;-92
2022/07/15 11:50:49;;;;;;;3.55;0.60;;;20.50;99.90;;;;;;4963549;28;21205;-89
2022/07/15 11:53:15;;;;;;;2.80;0.70;;;20.50;99.90;;;;;;4952513;28;20043;-90
2022/07/15 11:56:08;;;;;;;2.63;0.73;;;20.50;99.90;;;;;;4963922;28;20047;-89
2022/07/15 11:58:39;;;;;;;2.95;0.68;;;20.40;99.90;;;;;;4943136;28;20055;-88
2022/07/15 12:01:11;;;;;;;4.32;0.80;;;20.30;99.90;;;;;;4949844;29;20066;-90
2022/07/15 12:03:44;;;;;;;3.45;0.70;;;20.30;99.90;;;;;;4966069;28;20043;-89
2022/07/15 12:06:15;;;;;;;2.63;0.70;;;20.30;99.90;;;;;;4965913;28;20051;-92
2022/07/15 12:08:55;;;;;;;2.53;0.70;;;20.30;99.90;;;;;;4950512;28;20058;-92
2022/07/15 12:11:35;;;;;;;4.15;0.90;;;20.30;99.90;;;;;;4948519;28;20054;-91
2022/07/15 12:14:04;;;;;;;2.38;0.80;;;20.20;99.90;;;;;;4930155;29;20047;-90
2022/07/15 12:16:40;;;;;;;3.83;0.90;;;20.20;99.90;;;;;;4941419;28;20062;-89
2022/07/15 12:19:14;;;;;;;2.70;0.65;;;20.20;99.90;;;;;;4949337;29;20135;-88
2022/07/15 12:21:41;;;;;;;3.60;0.95;;;20.20;99.90;;;;;;4949281;29;20055;-90
2022/07/15 12:24:28;;;;;;;2.08;0.70;;;20.30;99.90;;;;;;4949707;28;20476;-88
2022/07/15 12:26:53;;;;;;;3.42;0.90;;;20.30;99.90;;;;;;4940221;28;20138;-91
2022/07/15 12:29:28;;;;;;;2.22;0.70;;;20.20;99.90;;;;;;4947381;28;20517;-93
2022/07/15 12:31:56;;;;;;;4.38;0.70;;;20.20;99.90;;;;;;4946694;28;20039;-88
2022/07/15 12:34:42;;;;;;;2.25;0.63;;;20.20;99.90;;;;;;4944512;28;20047;-89
2022/07/15 12:37:08;;;;;;;2.97;0.70;;;20.20;99.90;;;;;;4947970;28;20423;-91
2022/07/15 12:39:52;;;;;;;3.28;0.77;;;20.20;99.90;;;;;;4932365;29;20126;-91
2022/07/15 12:42:18;;;;;;;2.63;0.80;;;20.30;99.90;;;;;;4932178;29;20047;-89
2022/07/15 12:44:43;;;;;;;2.08;0.68;;;20.20;99.90;;;;;;4946911;28;20047;-89
2022/07/15 12:47:09;;;;;;;2.78;0.80;;;20.20;99.90;;;;;;4948491;28;20058;-90
2022/07/15 12:49:49;;;;;;;1.30;0.50;;;20.20;99.90;;;;;;4950342;28;20051;-89
2022/07/15 12:52:37;;;;;;;1.58;0.57;;;20.10;99.90;;;;;;4950978;28;20044;-91
2022/07/15 12:55:13;;;;;;;1.98;0.60;;;20.10;99.90;;;;;;4965487;28;20473;-89
2022/07/15 12:57:39;;;;;;;1.50;0.57;;;20.20;99.90;;;;;;4950971;28;20058;-90
2022/07/15 13:00:07;;;;;;;1.80;0.50;;;20.20;99.90;;;;;;4948305;28;20047;-91
2022/07/15 13:03:03;;;;;;;1.27;0.68;;;20.30;99.90;;;;;;4948207;28;20055;-89
2022/07/15 13:05:39;;;;;;;2.05;0.75;;;20.50;99.90;;;;;;4950388;29;20078;-92
2022/07/15 13:08:11;;;;;;;1.67;0.60;;;20.60;99.90;;;;;;4948757;29;20151;-90
2022/07/15 13:10:40;;;;;;;2.53;0.60;;;20.60;99.90;;;;;;4950961;29;20515;-92